createdAt,value
2018-07-30T00:00:25.631Z,19.55
2018-07-30T00:01:25.615Z,19.43
2018-07-30T00:02:25.602Z,19.51
2018-07-30T00:03:25.597Z,19.50
2018-07-30T00:04:25.568Z,19.47
2018-07-30T00:05:25.566Z,19.55
2018-07-30T00:06:25.538Z,19.48
2018-07-30T00:07:25.523Z,19.51
2018-07-30T00:08:25.522Z,19.44
2018-07-30T00:09:25.492Z,19.46
2018-07-30T00:10:25.477Z,19.46
2018-07-30T00:11:25.462Z,19.41
2018-07-30T00:12:25.444Z,19.33
2018-07-30T00:13:25.429Z,19.29
2018-07-30T00:14:25.424Z,19.32
2018-07-30T00:15:25.399Z,19.18
2018-07-30T00:16:25.382Z,19.19
2018-07-30T00:17:25.368Z,19.07
2018-07-30T00:18:25.353Z,19.08
2018-07-30T00:19:25.346Z,19.11
2018-07-30T00:20:25.320Z,19.11
2018-07-30T00:21:25.375Z,18.91
2018-07-30T00:22:25.289Z,18.98
2018-07-30T00:23:25.275Z,18.94
2018-07-30T00:24:25.289Z,19.10
2018-07-30T00:25:25.246Z,19.08
2018-07-30T00:26:25.228Z,19.13
2018-07-30T00:27:25.211Z,19.18
2018-07-30T00:28:25.197Z,19.16
2018-07-30T00:29:25.182Z,19.19
2018-07-30T00:30:25.176Z,19.11
2018-07-30T00:31:25.159Z,19.00
2018-07-30T00:32:25.134Z,19.00
2018-07-30T00:33:25.120Z,19.00
2018-07-30T00:34:25.105Z,19.10
2018-07-30T00:35:25.097Z,19.08
2018-07-30T00:36:25.073Z,19.04
2018-07-30T00:37:25.057Z,18.95
2018-07-30T00:38:25.041Z,18.99
2018-07-30T00:39:25.027Z,18.99
2018-07-30T00:40:25.026Z,18.92
2018-07-30T00:41:24.994Z,18.92
2018-07-30T00:42:24.981Z,18.92
2018-07-30T00:43:24.965Z,19.00
2018-07-30T00:44:24.947Z,18.91
2018-07-30T00:45:24.931Z,18.95
2018-07-30T00:46:24.926Z,18.98
2018-07-30T00:47:24.899Z,18.88
2018-07-30T00:48:24.884Z,18.85
2018-07-30T00:49:24.885Z,18.90
2018-07-30T00:50:24.852Z,18.90
2018-07-30T00:51:24.847Z,18.82
2018-07-30T00:52:24.821Z,18.91
2018-07-30T00:53:24.808Z,18.88
2018-07-30T00:54:24.792Z,18.81
2018-07-30T00:55:24.774Z,18.90
2018-07-30T00:56:24.767Z,18.90
2018-07-30T00:57:24.752Z,18.88
2018-07-30T00:58:24.728Z,18.92
2018-07-30T00:59:24.712Z,19.02
2018-07-30T01:00:24.694Z,18.98
2018-07-30T01:01:24.694Z,18.91
2018-07-30T01:02:24.665Z,18.94
2018-07-30T01:03:24.649Z,18.99
2018-07-30T01:04:24.634Z,18.90
2018-07-30T01:05:24.615Z,18.92
2018-07-30T01:06:24.601Z,18.98
2018-07-30T01:07:24.595Z,18.90
2018-07-30T01:08:24.568Z,18.87
2018-07-30T01:09:24.555Z,18.85
2018-07-30T01:10:24.539Z,18.81
2018-07-30T01:11:24.522Z,18.87
2018-07-30T01:12:24.514Z,18.84
2018-07-30T01:13:24.489Z,18.82
2018-07-30T01:14:24.513Z,18.81
2018-07-30T01:15:24.459Z,18.80
2018-07-30T01:16:24.443Z,18.78
2018-07-30T01:17:24.442Z,18.84
2018-07-30T01:18:24.410Z,18.78
2018-07-30T01:19:24.395Z,18.75
2018-07-30T01:20:24.377Z,18.69
2018-07-30T01:21:24.363Z,18.72
2018-07-30T01:22:24.346Z,18.72
2018-07-30T01:23:24.341Z,18.75
2018-07-30T01:24:24.314Z,18.72
2018-07-30T01:25:24.299Z,18.72
2018-07-30T01:26:24.283Z,18.66
2018-07-30T01:27:24.268Z,18.69
2018-07-30T01:28:24.264Z,18.72
2018-07-30T01:29:24.235Z,18.63
2018-07-30T01:30:24.220Z,18.72
2018-07-30T01:31:24.208Z,18.75
2018-07-30T01:32:24.188Z,18.75
2018-07-30T01:33:24.181Z,18.69
2018-07-30T01:34:24.156Z,18.70
2018-07-30T01:35:24.139Z,18.75
2018-07-30T01:36:24.123Z,18.75
2018-07-30T01:37:24.107Z,18.76
2018-07-30T01:38:24.104Z,18.69
2018-07-30T01:39:24.076Z,18.70
2018-07-30T01:40:24.060Z,18.73
2018-07-30T01:41:24.044Z,18.72
2018-07-30T01:42:24.030Z,18.65
2018-07-30T01:43:24.028Z,18.63
2018-07-30T01:44:23.996Z,18.73
2018-07-30T01:45:23.980Z,18.55
2018-07-30T01:46:23.964Z,18.60
2018-07-30T01:47:23.949Z,18.60
2018-07-30T01:48:23.935Z,18.60
2018-07-30T01:49:23.947Z,18.62
2018-07-30T01:50:23.902Z,18.60
2018-07-30T01:51:23.885Z,18.62
2018-07-30T01:52:23.868Z,18.57
2018-07-30T01:53:23.852Z,18.63
2018-07-30T01:54:23.848Z,18.57
2018-07-30T01:55:23.834Z,18.57
2018-07-30T01:56:23.805Z,18.58
2018-07-30T01:57:23.789Z,18.65
2018-07-30T01:58:23.772Z,18.60
2018-07-30T01:59:23.767Z,18.55
2018-07-30T02:00:23.741Z,18.54
2018-07-30T02:01:23.728Z,18.57
2018-07-30T02:02:23.708Z,18.65
2018-07-30T02:03:23.693Z,18.69
2018-07-30T02:04:23.689Z,18.69
2018-07-30T02:05:23.659Z,18.72
2018-07-30T02:06:23.647Z,18.69
2018-07-30T02:07:23.628Z,18.66
2018-07-30T02:08:23.614Z,18.76
2018-07-30T02:09:23.596Z,18.70
2018-07-30T02:10:23.589Z,18.73
2018-07-30T02:11:23.567Z,18.75
2018-07-30T02:12:23.552Z,18.73
2018-07-30T02:13:23.532Z,18.73
2018-07-30T02:14:23.516Z,18.75
2018-07-30T02:15:23.510Z,18.72
2018-07-30T02:16:23.484Z,18.66
2018-07-30T02:17:23.467Z,18.73
2018-07-30T02:18:23.453Z,18.69
2018-07-30T02:19:23.436Z,18.67
2018-07-30T02:20:23.429Z,18.67
2018-07-30T02:21:23.413Z,18.60
2018-07-30T02:22:23.388Z,18.72
2018-07-30T02:23:23.372Z,18.69
2018-07-30T02:24:23.357Z,18.75
2018-07-30T02:25:23.349Z,18.60
2018-07-30T02:26:23.324Z,18.60
2018-07-30T02:27:23.308Z,18.60
2018-07-30T02:28:23.294Z,18.66
2018-07-30T02:29:23.276Z,18.73
2018-07-30T02:30:23.276Z,18.69
2018-07-30T02:31:23.244Z,18.67
2018-07-30T02:32:23.228Z,18.67
2018-07-30T02:33:23.212Z,18.66
2018-07-30T02:34:23.197Z,18.55
2018-07-30T02:35:23.180Z,18.70
2018-07-30T02:36:23.176Z,18.73
2018-07-30T02:37:23.147Z,18.69
2018-07-30T02:38:23.133Z,18.66
2018-07-30T02:39:23.118Z,18.72
2018-07-30T02:40:23.100Z,18.69
2018-07-30T02:41:23.093Z,18.67
2018-07-30T02:42:23.071Z,18.69
2018-07-30T02:43:23.051Z,18.66
2018-07-30T02:44:23.041Z,18.72
2018-07-30T02:45:23.020Z,18.72
2018-07-30T02:46:23.020Z,18.72
2018-07-30T02:47:22.993Z,18.69
2018-07-30T02:48:22.971Z,18.69
2018-07-30T02:49:22.955Z,18.76
2018-07-30T02:50:22.941Z,18.73
2018-07-30T02:51:22.933Z,18.70
2018-07-30T02:52:22.907Z,18.76
2018-07-30T02:53:22.894Z,18.73
2018-07-30T02:54:22.875Z,18.70
2018-07-30T02:55:22.863Z,18.72
2018-07-30T02:56:22.858Z,18.69
2018-07-30T02:57:22.828Z,18.73
2018-07-30T02:58:22.811Z,18.72
2018-07-30T02:59:22.795Z,18.62
2018-07-30T03:00:22.777Z,18.72
2018-07-30T03:01:22.762Z,18.69
2018-07-30T03:02:22.761Z,18.66
2018-07-30T03:03:22.730Z,18.66
2018-07-30T03:04:22.714Z,18.72
2018-07-30T03:05:22.699Z,18.65
2018-07-30T03:06:22.683Z,18.66
2018-07-30T03:07:22.675Z,18.69
2018-07-30T03:08:22.650Z,18.67
2018-07-30T03:09:22.681Z,18.65
2018-07-30T03:10:22.619Z,18.69
2018-07-30T03:11:22.603Z,18.58
2018-07-30T03:12:22.596Z,18.55
2018-07-30T03:13:22.570Z,18.62
2018-07-30T03:14:22.553Z,18.57
2018-07-30T03:15:22.538Z,18.57
2018-07-30T03:16:22.521Z,18.60
2018-07-30T03:17:22.516Z,18.60
2018-07-30T03:18:22.492Z,18.52
2018-07-30T03:19:22.476Z,18.51
2018-07-30T03:20:22.457Z,18.47
2018-07-30T03:21:22.442Z,18.50
2018-07-30T03:22:22.458Z,18.54
2018-07-30T03:23:22.410Z,18.57
2018-07-30T03:24:22.393Z,18.58
2018-07-30T03:25:22.381Z,18.45
2018-07-30T03:26:22.361Z,18.44
2018-07-30T03:27:22.345Z,18.45
2018-07-30T03:28:22.342Z,18.41
2018-07-30T03:29:22.313Z,18.47
2018-07-30T03:30:22.299Z,18.37
2018-07-30T03:31:22.280Z,18.44
2018-07-30T03:32:22.271Z,18.39
2018-07-30T03:33:22.258Z,18.42
2018-07-30T03:34:22.232Z,18.39
2018-07-30T03:35:22.217Z,18.36
2018-07-30T03:36:22.200Z,18.37
2018-07-30T03:37:22.184Z,18.37
2018-07-30T03:38:22.178Z,18.44
2018-07-30T03:39:22.152Z,18.33
2018-07-30T03:40:22.134Z,18.35
2018-07-30T03:41:22.118Z,18.32
2018-07-30T03:42:22.178Z,18.27
2018-07-30T03:43:22.118Z,18.30
2018-07-30T03:44:22.068Z,18.30
2018-07-30T03:45:22.058Z,18.35
2018-07-30T03:46:22.039Z,18.25
2018-07-30T03:47:22.021Z,18.27
2018-07-30T03:48:22.005Z,18.27
2018-07-30T03:49:21.998Z,18.25
2018-07-30T03:50:21.974Z,18.27
2018-07-30T03:51:21.961Z,18.23
2018-07-30T03:52:21.940Z,18.20
2018-07-30T03:53:21.926Z,18.18
2018-07-30T03:54:21.918Z,18.27
2018-07-30T03:55:21.892Z,18.26
2018-07-30T03:56:21.875Z,18.18
2018-07-30T03:57:21.859Z,18.21
2018-07-30T03:58:21.843Z,18.26
2018-07-30T03:59:21.837Z,18.21
2018-07-30T04:00:21.814Z,18.21
2018-07-30T04:01:21.794Z,18.29
2018-07-30T04:02:21.779Z,18.26
2018-07-30T04:03:21.763Z,18.27
2018-07-30T04:04:21.752Z,18.29
2018-07-30T04:05:21.728Z,18.27
2018-07-30T04:06:21.716Z,18.26
2018-07-30T04:07:21.697Z,18.26
2018-07-30T04:08:21.681Z,18.21
2018-07-30T04:09:21.676Z,18.23
2018-07-30T04:10:21.649Z,18.26
2018-07-30T04:11:21.632Z,18.23
2018-07-30T04:12:21.613Z,18.21
2018-07-30T04:13:21.603Z,18.26
2018-07-30T04:14:21.586Z,18.25
2018-07-30T04:15:21.579Z,18.25
2018-07-30T04:16:21.550Z,18.27
2018-07-30T04:17:21.534Z,18.27
2018-07-30T04:18:21.517Z,18.21
2018-07-30T04:19:21.500Z,18.27
2018-07-30T04:20:21.493Z,18.30
2018-07-30T04:21:21.468Z,18.30
2018-07-30T04:22:21.452Z,18.32
2018-07-30T04:23:21.438Z,18.39
2018-07-30T04:24:21.419Z,18.27
2018-07-30T04:25:21.421Z,18.26
2018-07-30T04:26:21.385Z,18.23
2018-07-30T04:27:21.372Z,18.26
2018-07-30T04:28:21.358Z,18.27
2018-07-30T04:29:21.338Z,18.25
2018-07-30T04:30:21.321Z,18.29
2018-07-30T04:31:21.321Z,18.27
2018-07-30T04:32:21.290Z,18.33
2018-07-30T04:33:21.272Z,18.41
2018-07-30T04:34:21.255Z,18.36
2018-07-30T04:35:21.240Z,18.39
2018-07-30T04:36:21.244Z,18.36
2018-07-30T04:37:21.207Z,18.35
2018-07-30T04:38:21.191Z,18.37
2018-07-30T04:39:21.175Z,18.30
2018-07-30T04:40:21.158Z,18.39
2018-07-30T04:41:21.142Z,18.39
2018-07-30T04:42:21.135Z,18.39
2018-07-30T04:43:21.109Z,18.55
2018-07-30T04:44:21.095Z,18.45
2018-07-30T04:45:21.076Z,18.55
2018-07-30T04:46:21.059Z,18.60
2018-07-30T04:47:21.054Z,18.62
2018-07-30T04:48:21.028Z,18.60
2018-07-30T04:49:21.076Z,18.72
2018-07-30T04:50:21.079Z,18.69
2018-07-30T04:51:20.982Z,18.66
2018-07-30T04:52:20.972Z,18.69
2018-07-30T04:53:20.947Z,18.73
2018-07-30T04:54:20.931Z,18.67
2018-07-30T04:55:20.920Z,18.72
2018-07-30T04:56:20.897Z,18.81
2018-07-30T04:57:20.898Z,18.78
2018-07-30T04:58:20.867Z,18.70
2018-07-30T04:59:20.853Z,18.82
2018-07-30T05:00:20.834Z,18.81
2018-07-30T05:01:20.820Z,18.87
2018-07-30T05:02:20.802Z,18.85
2018-07-30T05:03:20.797Z,18.94
2018-07-30T05:04:20.769Z,18.90
2018-07-30T05:05:20.755Z,18.91
2018-07-30T05:06:20.741Z,18.88
2018-07-30T05:07:20.723Z,18.98
2018-07-30T05:08:20.720Z,18.88
2018-07-30T05:09:20.690Z,18.88
2018-07-30T05:10:20.674Z,18.91
2018-07-30T05:11:20.673Z,18.98
2018-07-30T05:12:20.642Z,18.92
2018-07-30T05:13:20.625Z,18.90
2018-07-30T05:14:20.621Z,18.91
2018-07-30T05:15:20.595Z,19.00
2018-07-30T05:16:20.578Z,18.95
2018-07-30T05:17:20.563Z,19.02
2018-07-30T05:18:20.546Z,19.06
2018-07-30T05:19:20.575Z,19.10
2018-07-30T05:20:20.512Z,19.02
2018-07-30T05:21:20.497Z,19.21
2018-07-30T05:22:20.482Z,19.10
2018-07-30T05:23:20.467Z,19.11
2018-07-30T05:24:20.460Z,19.28
2018-07-30T05:25:20.434Z,19.26
2018-07-30T05:26:20.420Z,19.36
2018-07-30T05:27:20.401Z,19.32
2018-07-30T05:28:20.386Z,19.36
2018-07-30T05:29:20.380Z,19.43
2018-07-30T05:30:20.354Z,19.47
2018-07-30T05:31:20.343Z,19.58
2018-07-30T05:32:20.321Z,19.68
2018-07-30T05:33:20.305Z,19.66
2018-07-30T05:34:20.303Z,19.66
2018-07-30T05:35:20.275Z,19.84
2018-07-30T05:36:20.257Z,19.87
2018-07-30T05:37:20.318Z,19.86
2018-07-30T05:38:20.226Z,19.98
2018-07-30T05:39:20.211Z,20.02
2018-07-30T05:40:20.204Z,20.06
2018-07-30T05:41:20.179Z,20.06
2018-07-30T05:42:20.165Z,20.24
2018-07-30T05:43:20.149Z,20.28
2018-07-30T05:44:20.132Z,20.33
2018-07-30T05:45:20.129Z,20.55
2018-07-30T05:46:20.102Z,20.77
2018-07-30T05:47:20.087Z,20.80
2018-07-30T05:48:20.069Z,20.88
2018-07-30T05:49:20.055Z,21.09
2018-07-30T05:50:20.039Z,21.25
2018-07-30T05:51:20.038Z,21.52
2018-07-30T05:52:20.008Z,21.92
2018-07-30T05:53:19.992Z,22.20
2018-07-30T05:54:19.977Z,22.55
2018-07-30T05:55:19.961Z,22.85
2018-07-30T05:56:19.956Z,22.85
2018-07-30T05:57:19.931Z,22.79
2018-07-30T05:58:19.917Z,22.80
2018-07-30T05:59:19.902Z,23.00
2018-07-30T06:00:19.885Z,23.09
2018-07-30T06:01:19.881Z,23.32
2018-07-30T06:02:19.857Z,23.38
2018-07-30T06:03:19.845Z,23.07
2018-07-30T06:04:19.828Z,23.10
2018-07-30T06:05:19.870Z,23.32
2018-07-30T06:06:19.809Z,23.28
2018-07-30T06:07:19.783Z,23.40
2018-07-30T06:08:19.768Z,23.33
2018-07-30T06:09:19.755Z,23.10
2018-07-30T06:10:19.740Z,23.32
2018-07-30T06:11:19.737Z,23.13
2018-07-30T06:12:19.711Z,23.15
2018-07-30T06:13:19.697Z,23.53
2018-07-30T06:14:19.683Z,23.88
2018-07-30T06:15:19.669Z,24.08
2018-07-30T06:16:19.665Z,24.35
2018-07-30T06:17:19.644Z,24.62
2018-07-30T06:18:19.627Z,24.76
2018-07-30T06:19:19.614Z,25.03
2018-07-30T06:20:19.600Z,25.25
2018-07-30T06:21:19.599Z,25.39
2018-07-30T06:22:19.570Z,24.88
2018-07-30T06:23:19.559Z,25.08
2018-07-30T06:24:19.545Z,25.25
2018-07-30T06:25:19.532Z,25.75
2018-07-30T06:26:19.556Z,25.55
2018-07-30T06:27:19.573Z,25.67
2018-07-30T06:28:19.529Z,26.20
2018-07-30T06:29:19.480Z,26.30
2018-07-30T06:30:19.467Z,26.63
2018-07-30T06:31:19.454Z,26.37
2018-07-30T06:32:19.454Z,25.87
2018-07-30T06:33:19.427Z,25.62
2018-07-30T06:34:19.415Z,25.33
2018-07-30T06:35:19.403Z,24.84
2018-07-30T06:36:19.389Z,24.37
2018-07-30T06:37:19.378Z,23.90
2018-07-30T06:38:19.382Z,23.63
2018-07-30T06:39:19.352Z,23.66
2018-07-30T06:40:19.339Z,23.58
2018-07-30T06:41:19.325Z,23.61
2018-07-30T06:42:19.313Z,23.55
2018-07-30T06:43:19.309Z,23.36
2018-07-30T06:44:19.289Z,23.43
2018-07-30T06:45:19.274Z,23.38
2018-07-30T06:46:19.261Z,23.48
2018-07-30T06:47:19.249Z,23.68
2018-07-30T06:48:19.245Z,23.70
2018-07-30T06:49:19.221Z,23.73
2018-07-30T06:50:19.210Z,23.79
2018-07-30T06:51:19.197Z,23.84
2018-07-30T06:52:19.183Z,23.73
2018-07-30T06:53:19.215Z,23.87
2018-07-30T06:54:19.158Z,23.83
2018-07-30T06:55:19.145Z,23.93
2018-07-30T06:56:19.131Z,24.03
2018-07-30T06:57:19.118Z,24.08
2018-07-30T06:58:19.117Z,24.15
2018-07-30T06:59:19.093Z,24.35
2018-07-30T07:00:19.079Z,24.35
2018-07-30T07:01:19.068Z,24.53
2018-07-30T07:02:19.052Z,24.78
2018-07-30T07:03:19.063Z,24.87
2018-07-30T07:04:19.027Z,25.32
2018-07-30T07:05:19.015Z,25.92
2018-07-30T07:06:19.001Z,26.17
2018-07-30T07:07:18.991Z,26.29
2018-07-30T07:08:18.985Z,26.26
2018-07-30T07:09:18.964Z,25.87
2018-07-30T07:10:18.954Z,25.40
2018-07-30T07:11:18.940Z,25.02
2018-07-30T07:12:18.927Z,25.02
2018-07-30T07:13:18.925Z,25.21
2018-07-30T07:14:18.904Z,25.33
2018-07-30T07:15:18.890Z,25.43
2018-07-30T07:16:18.882Z,25.94
2018-07-30T07:17:18.865Z,25.80
2018-07-30T07:18:18.864Z,26.07
2018-07-30T07:19:18.840Z,26.21
2018-07-30T07:20:18.829Z,25.91
2018-07-30T07:21:18.871Z,25.83
2018-07-30T07:22:18.805Z,25.76
2018-07-30T07:23:18.802Z,25.85
2018-07-30T07:24:18.780Z,26.05
2018-07-30T07:25:18.768Z,26.29
2018-07-30T07:26:18.759Z,26.25
2018-07-30T07:27:18.744Z,26.35
2018-07-30T07:28:18.762Z,26.92
2018-07-30T07:29:18.719Z,26.95
2018-07-30T07:30:18.708Z,26.85
2018-07-30T07:31:18.696Z,26.72
2018-07-30T07:32:18.684Z,26.73
2018-07-30T07:33:18.676Z,26.69
2018-07-30T07:34:18.670Z,26.92
2018-07-30T07:35:18.651Z,26.91
2018-07-30T07:36:18.638Z,26.67
2018-07-30T07:37:18.626Z,26.72
2018-07-30T07:38:18.618Z,26.72
2018-07-30T07:39:18.612Z,26.82
2018-07-30T07:40:18.653Z,26.77
2018-07-30T07:41:18.577Z,26.72
2018-07-30T07:42:18.571Z,26.84
2018-07-30T07:43:18.556Z,26.97
2018-07-30T07:44:18.576Z,27.12
2018-07-30T07:45:18.530Z,27.06
2018-07-30T07:46:18.520Z,26.94
2018-07-30T07:47:18.540Z,27.10
2018-07-30T07:48:18.575Z,27.22
2018-07-30T07:49:18.511Z,27.31
2018-07-30T07:50:18.603Z,27.41
2018-07-30T07:51:18.465Z,27.43
2018-07-30T07:52:18.452Z,27.32
2018-07-30T07:53:18.445Z,27.04
2018-07-30T07:54:18.431Z,27.02
2018-07-30T07:55:18.433Z,27.22
2018-07-30T07:56:18.409Z,27.32
2018-07-30T07:57:18.402Z,27.28
2018-07-30T07:58:18.386Z,27.37
2018-07-30T07:59:18.375Z,27.65
2018-07-30T08:00:18.375Z,27.69
2018-07-30T08:01:18.354Z,27.85
2018-07-30T08:02:18.342Z,27.97
2018-07-30T08:03:18.333Z,28.19
2018-07-30T08:04:18.319Z,28.02
2018-07-30T08:05:18.324Z,28.15
2018-07-30T08:06:18.370Z,28.12
2018-07-30T08:07:18.288Z,28.04
2018-07-30T08:08:18.276Z,28.12
2018-07-30T08:09:18.265Z,28.09
2018-07-30T08:10:18.257Z,28.15
2018-07-30T08:11:18.254Z,28.22
2018-07-30T08:12:18.235Z,28.21
2018-07-30T08:13:18.224Z,28.04
2018-07-30T08:14:18.213Z,27.85
2018-07-30T08:15:18.206Z,27.87
2018-07-30T08:16:18.240Z,27.82
2018-07-30T08:17:18.181Z,27.88
2018-07-30T08:18:18.171Z,27.74
2018-07-30T08:19:18.161Z,27.67
2018-07-30T08:20:18.148Z,27.65
2018-07-30T08:21:18.138Z,27.82
2018-07-30T08:22:18.156Z,27.84
2018-07-30T08:23:18.118Z,28.03
2018-07-30T08:24:18.106Z,28.12
2018-07-30T08:25:18.102Z,28.34
2018-07-30T08:26:18.085Z,28.33
2018-07-30T08:27:18.085Z,28.43
2018-07-30T08:28:18.065Z,28.64
2018-07-30T08:29:18.055Z,28.43
2018-07-30T08:30:18.043Z,28.33
2018-07-30T08:31:18.033Z,28.41
2018-07-30T08:32:18.032Z,28.70
2018-07-30T08:33:18.012Z,28.78
2018-07-30T08:34:18.003Z,28.68
2018-07-30T08:35:18.036Z,28.83
2018-07-30T08:36:17.983Z,28.95
2018-07-30T08:37:17.989Z,29.14
2018-07-30T08:38:17.962Z,28.67
2018-07-30T08:39:17.953Z,28.73
2018-07-30T08:40:17.941Z,28.68
2018-07-30T08:41:17.931Z,28.73
2018-07-30T08:42:17.951Z,28.74
2018-07-30T08:43:17.921Z,28.76
2018-07-30T08:44:17.901Z,28.85
2018-07-30T08:45:17.891Z,28.96
2018-07-30T08:46:17.881Z,29.08
2018-07-30T08:47:17.870Z,29.31
2018-07-30T08:48:17.871Z,29.31
2018-07-30T08:49:17.851Z,29.49
2018-07-30T08:50:17.845Z,29.52
2018-07-30T08:51:17.834Z,29.78
2018-07-30T08:52:17.823Z,29.78
2018-07-30T08:53:17.844Z,29.73
2018-07-30T08:54:17.801Z,29.78
2018-07-30T08:55:17.791Z,29.70
2018-07-30T08:56:17.839Z,30.02
2018-07-30T08:57:17.773Z,29.95
2018-07-30T08:58:17.763Z,29.68
2018-07-30T08:59:17.763Z,29.60
2018-07-30T09:00:17.744Z,29.73
2018-07-30T09:01:17.733Z,29.98
2018-07-30T09:02:17.725Z,30.02
2018-07-30T09:03:17.715Z,29.97
2018-07-30T09:04:17.715Z,29.89
2018-07-30T09:05:17.695Z,30.15
2018-07-30T09:06:17.687Z,30.08
2018-07-30T09:07:17.677Z,30.02
2018-07-30T09:08:17.666Z,29.87
2018-07-30T09:09:17.672Z,29.87
2018-07-30T09:10:17.648Z,29.70
2018-07-30T09:11:17.638Z,29.74
2018-07-30T09:12:17.629Z,29.76
2018-07-30T09:13:17.623Z,29.83
2018-07-30T09:14:17.610Z,30.04
2018-07-30T09:15:17.611Z,30.01
2018-07-30T09:16:17.592Z,29.90
2018-07-30T09:17:17.625Z,29.82
2018-07-30T09:18:17.590Z,29.46
2018-07-30T09:19:17.577Z,29.28
2018-07-30T09:20:17.561Z,29.37
2018-07-30T09:21:17.544Z,29.57
2018-07-30T09:22:17.535Z,29.14
2018-07-30T09:23:17.527Z,29.21
2018-07-30T09:24:17.515Z,29.06
2018-07-30T09:25:17.537Z,29.37
2018-07-30T09:26:17.497Z,29.57
2018-07-30T09:27:17.489Z,29.76
2018-07-30T09:28:17.477Z,29.94
2018-07-30T09:29:17.468Z,30.10
2018-07-30T09:30:17.457Z,30.07
2018-07-30T09:31:17.458Z,29.90
2018-07-30T09:32:17.439Z,30.00
2018-07-30T09:33:17.429Z,29.89
2018-07-30T09:34:17.421Z,29.83
2018-07-30T09:35:17.411Z,29.73
2018-07-30T09:36:17.411Z,29.52
2018-07-30T09:37:17.398Z,29.37
2018-07-30T09:38:17.382Z,29.51
2018-07-30T09:39:17.432Z,29.60
2018-07-30T09:40:17.411Z,29.71
2018-07-30T09:41:17.363Z,29.74
2018-07-30T09:42:17.344Z,29.90
2018-07-30T09:43:17.334Z,29.83
2018-07-30T09:44:17.329Z,30.15
2018-07-30T09:45:17.315Z,30.16
2018-07-30T09:46:17.322Z,30.27
2018-07-30T09:47:17.297Z,30.20
2018-07-30T09:48:17.286Z,30.16
2018-07-30T09:49:17.278Z,30.00
2018-07-30T09:50:17.269Z,29.74
2018-07-30T09:51:17.259Z,29.87
2018-07-30T09:52:17.258Z,29.85
2018-07-30T09:53:17.240Z,29.89
2018-07-30T09:54:17.230Z,29.82
2018-07-30T09:55:17.220Z,29.89
2018-07-30T09:56:17.274Z,29.86
2018-07-30T09:57:17.211Z,30.00
2018-07-30T09:58:17.192Z,30.02
2018-07-30T09:59:17.182Z,30.05
2018-07-30T10:00:17.172Z,30.07
2018-07-30T10:01:17.166Z,30.05
2018-07-30T10:02:17.168Z,29.85
2018-07-30T10:03:17.144Z,29.60
2018-07-30T10:04:17.134Z,29.68
2018-07-30T10:05:17.126Z,29.18
2018-07-30T10:06:17.159Z,29.05
2018-07-30T10:07:17.108Z,29.36
2018-07-30T10:08:17.109Z,29.37
2018-07-30T10:09:17.089Z,29.31
2018-07-30T10:10:17.092Z,29.39
2018-07-30T10:11:17.067Z,29.53
2018-07-30T10:12:17.057Z,29.63
2018-07-30T10:13:17.057Z,29.85
2018-07-30T10:14:17.036Z,30.04
2018-07-30T10:15:17.029Z,30.19
2018-07-30T10:16:17.017Z,30.35
2018-07-30T10:17:17.008Z,30.45
2018-07-30T10:18:17.029Z,30.51
2018-07-30T10:19:17.000Z,30.38
2018-07-30T10:20:16.981Z,30.38
2018-07-30T10:21:16.972Z,30.55
2018-07-30T10:22:16.965Z,30.65
2018-07-30T10:23:16.951Z,30.51
2018-07-30T10:24:16.952Z,30.42
2018-07-30T10:25:16.932Z,30.49
2018-07-30T10:26:16.922Z,30.53
2018-07-30T10:27:16.915Z,30.65
2018-07-30T10:28:16.904Z,30.75
2018-07-30T10:29:16.932Z,30.65
2018-07-30T10:30:16.884Z,30.70
2018-07-30T10:31:16.876Z,30.70
2018-07-30T10:32:16.864Z,30.72
2018-07-30T10:33:16.855Z,30.77
2018-07-30T10:34:16.861Z,31.01
2018-07-30T10:35:16.838Z,31.17
2018-07-30T10:36:16.826Z,31.34
2018-07-30T10:37:16.817Z,31.35
2018-07-30T10:38:16.955Z,31.35
2018-07-30T10:39:16.799Z,31.39
2018-07-30T10:40:16.829Z,31.16
2018-07-30T10:41:16.778Z,31.17
2018-07-30T10:42:16.770Z,31.26
2018-07-30T10:43:16.765Z,31.34
2018-07-30T10:44:16.752Z,31.07
2018-07-30T10:45:16.756Z,31.34
2018-07-30T10:46:16.758Z,31.47
2018-07-30T10:47:16.723Z,31.51
2018-07-30T10:48:16.716Z,31.50
2018-07-30T10:49:16.705Z,31.61
2018-07-30T10:50:16.711Z,31.66
2018-07-30T10:51:16.688Z,31.91
2018-07-30T10:52:16.677Z,32.07
2018-07-30T10:53:16.667Z,32.21
2018-07-30T10:54:16.661Z,31.91
2018-07-30T10:55:16.651Z,31.93
2018-07-30T10:56:16.651Z,32.06
2018-07-30T10:57:16.632Z,32.08
2018-07-30T10:58:16.621Z,32.14
2018-07-30T10:59:16.613Z,32.30
2018-07-30T11:00:16.604Z,32.44
2018-07-30T11:01:16.606Z,32.28
2018-07-30T11:02:16.589Z,32.21
2018-07-30T11:03:16.578Z,31.91
2018-07-30T11:04:16.567Z,31.58
2018-07-30T11:05:16.559Z,31.50
2018-07-30T11:06:16.583Z,31.84
2018-07-30T11:07:16.541Z,31.92
2018-07-30T11:08:16.532Z,31.95
2018-07-30T11:09:16.523Z,31.96
2018-07-30T11:10:16.514Z,32.11
2018-07-30T11:11:16.508Z,32.48
2018-07-30T11:12:16.504Z,32.43
2018-07-30T11:13:16.486Z,32.26
2018-07-30T11:14:16.478Z,31.91
2018-07-30T11:15:16.482Z,32.23
2018-07-30T11:16:16.459Z,32.78
2018-07-30T11:17:16.464Z,33.49
2018-07-30T11:18:16.442Z,34.09
2018-07-30T11:19:16.434Z,34.72
2018-07-30T11:20:16.423Z,34.91
2018-07-30T11:21:16.415Z,35.38
2018-07-30T11:22:16.425Z,35.70
2018-07-30T11:23:16.407Z,35.94
2018-07-30T11:24:16.389Z,36.34
2018-07-30T11:25:16.384Z,36.31
2018-07-30T11:26:16.371Z,35.99
2018-07-30T11:27:16.369Z,35.59
2018-07-30T11:28:16.382Z,35.72
2018-07-30T11:29:16.346Z,35.41
2018-07-30T11:30:16.338Z,35.50
2018-07-30T11:31:16.329Z,35.45
2018-07-30T11:32:16.320Z,35.22
2018-07-30T11:33:16.320Z,35.16
2018-07-30T11:34:16.304Z,35.66
2018-07-30T11:35:16.295Z,36.32
2018-07-30T11:36:16.288Z,36.19
2018-07-30T11:37:16.280Z,36.80
2018-07-30T11:38:16.282Z,36.93
2018-07-30T11:39:16.266Z,37.10
2018-07-30T11:40:16.253Z,36.91
2018-07-30T11:41:16.245Z,37.13
2018-07-30T11:42:16.239Z,37.69
2018-07-30T11:43:16.250Z,36.64
2018-07-30T11:44:16.223Z,36.47
2018-07-30T11:45:16.216Z,36.25
2018-07-30T11:46:16.209Z,36.72
2018-07-30T11:47:16.200Z,36.66
2018-07-30T11:48:16.226Z,37.00
2018-07-30T11:49:16.196Z,36.88
2018-07-30T11:50:16.176Z,37.20
2018-07-30T11:51:16.198Z,37.70
2018-07-30T11:52:16.159Z,37.76
2018-07-30T11:53:16.152Z,37.29
2018-07-30T11:54:16.193Z,37.59
2018-07-30T11:55:16.138Z,35.92
2018-07-30T11:56:16.128Z,35.72
2018-07-30T11:57:16.121Z,36.91
2018-07-30T11:58:16.114Z,36.90
2018-07-30T11:59:16.122Z,35.80
2018-07-30T12:00:16.099Z,34.89
2018-07-30T12:01:16.143Z,34.65
2018-07-30T12:02:16.084Z,34.44
2018-07-30T12:03:16.078Z,34.42
2018-07-30T12:04:16.068Z,34.66
2018-07-30T12:05:16.070Z,34.47
2018-07-30T12:06:16.054Z,33.91
2018-07-30T12:07:16.045Z,33.69
2018-07-30T12:08:16.038Z,33.45
2018-07-30T12:09:16.030Z,33.42
2018-07-30T12:10:16.032Z,34.50
2018-07-30T12:11:16.015Z,35.09
2018-07-30T12:12:16.007Z,35.58
2018-07-30T12:13:15.998Z,36.25
2018-07-30T12:14:15.991Z,36.12
2018-07-30T12:15:15.996Z,35.84
2018-07-30T12:16:15.976Z,35.50
2018-07-30T12:17:15.967Z,35.11
2018-07-30T12:18:15.960Z,34.65
2018-07-30T12:19:15.953Z,34.22
2018-07-30T12:20:15.948Z,34.81
2018-07-30T12:21:15.946Z,34.59
2018-07-30T12:22:15.929Z,34.27
2018-07-30T12:23:15.921Z,34.31
2018-07-30T12:24:15.913Z,34.08
2018-07-30T12:25:15.909Z,33.72
2018-07-30T12:26:15.908Z,35.09
2018-07-30T12:27:15.899Z,35.96
2018-07-30T12:28:15.881Z,36.66
2018-07-30T12:29:15.876Z,36.87
2018-07-30T12:30:15.970Z,36.99
2018-07-30T12:31:15.874Z,36.83
2018-07-30T12:32:15.851Z,36.54
2018-07-30T12:33:15.844Z,35.48
2018-07-30T12:34:15.836Z,35.11
2018-07-30T12:35:15.833Z,34.64
2018-07-30T12:36:15.935Z,34.44
2018-07-30T12:37:15.826Z,34.73
2018-07-30T12:38:15.806Z,34.50
2018-07-30T12:39:15.799Z,34.39
2018-07-30T12:40:15.794Z,34.21
2018-07-30T12:41:15.794Z,34.78
2018-07-30T12:42:15.785Z,36.03
2018-07-30T12:43:15.768Z,36.71
2018-07-30T12:44:15.762Z,37.62
2018-07-30T12:45:15.762Z,37.00
2018-07-30T12:46:15.746Z,37.56
2018-07-30T12:47:15.751Z,37.03
2018-07-30T12:48:15.732Z,36.88
2018-07-30T12:49:15.722Z,36.66
2018-07-30T12:50:15.716Z,36.09
2018-07-30T12:51:15.751Z,36.12
2018-07-30T12:52:15.701Z,35.94